createdAt,value
2016-12-27T00:00:12.281Z,1038.31
2016-12-27T00:01:12.270Z,1038.17
2016-12-27T00:02:12.258Z,1038.2
2016-12-27T00:03:12.248Z,1038.19
2016-12-27T00:04:12.236Z,1038.21
2016-12-27T00:05:12.225Z,1038.26
2016-12-27T00:06:12.214Z,1038.22
2016-12-27T00:07:12.202Z,1038.26
2016-12-27T00:08:12.191Z,1038.31
2016-12-27T00:09:12.179Z,1038.28
2016-12-27T00:10:12.168Z,1038.33
2016-12-27T00:11:12.156Z,1038.29
2016-12-27T00:12:12.146Z,1038.34
2016-12-27T00:13:12.134Z,1038.43
2016-12-27T00:14:12.123Z,1038.42
2016-12-27T00:15:12.111Z,1038.33
2016-12-27T00:16:12.103Z,1038.22
2016-12-27T00:17:12.093Z,1038.43
2016-12-27T00:18:12.080Z,1038.35
2016-12-27T00:19:12.067Z,1038.26
2016-12-27T00:20:12.054Z,1038.28
2016-12-27T00:21:12.043Z,1038.23
2016-12-27T00:22:12.032Z,1038.16
2016-12-27T00:23:12.021Z,1038.23
2016-12-27T00:24:12.009Z,1038.16
2016-12-27T00:25:11.998Z,1038.14
2016-12-27T00:26:11.987Z,1038.14
2016-12-27T00:27:11.975Z,1038.17
2016-12-27T00:28:11.963Z,1038.14
2016-12-27T00:29:11.952Z,1038.13
2016-12-27T00:30:11.941Z,1037.92
2016-12-27T00:31:11.932Z,1038
2016-12-27T00:32:11.918Z,1037.92
2016-12-27T00:33:11.907Z,1037.95
2016-12-27T00:34:11.896Z,1038.03
2016-12-27T00:35:11.884Z,1038.01
2016-12-27T00:36:11.873Z,1038
2016-12-27T00:37:11.862Z,1038.1
2016-12-27T00:38:11.849Z,1038.11
2016-12-27T00:39:11.838Z,1037.81
2016-12-27T00:40:11.827Z,1037.87
2016-12-27T00:41:11.816Z,1037.97
2016-12-27T00:42:11.804Z,1038
2016-12-27T00:43:11.794Z,1038.1
2016-12-27T00:44:11.783Z,1038.18
2016-12-27T00:45:11.772Z,1038.18
2016-12-27T00:46:11.760Z,1038.15
2016-12-27T00:47:11.749Z,1038.25
2016-12-27T00:48:11.738Z,1038.14
2016-12-27T00:49:11.726Z,1038.06
2016-12-27T00:50:11.717Z,1038.07
2016-12-27T00:51:11.705Z,1038.16
2016-12-27T00:52:11.694Z,1038.18
2016-12-27T00:53:11.682Z,1038.1
2016-12-27T00:54:11.671Z,1038.27
2016-12-27T00:55:11.660Z,1038.28
2016-12-27T00:56:11.650Z,1038.25
2016-12-27T00:57:11.638Z,1038.2
2016-12-27T00:58:11.627Z,1038.31
2016-12-27T00:59:11.616Z,1038.16
2016-12-27T01:00:11.604Z,1038.3
2016-12-27T01:01:11.594Z,1038.16
2016-12-27T01:02:11.583Z,1038.15
2016-12-27T01:03:11.572Z,1038.15
2016-12-27T01:04:11.561Z,1038.11
2016-12-27T01:05:11.550Z,1038.11
2016-12-27T01:06:11.539Z,1038.22
2016-12-27T01:07:11.529Z,1038.26
2016-12-27T01:08:11.517Z,1038.22
2016-12-27T01:09:11.506Z,1038.28
2016-12-27T01:10:11.496Z,1038.39
2016-12-27T01:11:11.484Z,1038.11
2016-12-27T01:12:11.475Z,1038.14
2016-12-27T01:13:11.462Z,1038.18
2016-12-27T01:14:11.452Z,1038.16
2016-12-27T01:15:11.439Z,1038.05
2016-12-27T01:16:11.429Z,1038.25
2016-12-27T01:17:11.418Z,1038.19
2016-12-27T01:18:11.407Z,1038.15
2016-12-27T01:19:11.399Z,1038.26
2016-12-27T01:20:11.384Z,1038.45
2016-12-27T01:21:11.374Z,1038.38
2016-12-27T01:22:11.362Z,1038.53
2016-12-27T01:23:11.351Z,1038.54
2016-12-27T01:24:11.340Z,1038.53
2016-12-27T01:25:11.329Z,1038.39
2016-12-27T01:26:11.318Z,1038.48
2016-12-27T01:27:11.307Z,1038.48
2016-12-27T01:28:11.296Z,1038.38
2016-12-27T01:29:11.285Z,1038.3
2016-12-27T01:30:11.273Z,1038.39
2016-12-27T01:31:11.262Z,1038.32
2016-12-27T01:32:11.251Z,1038.27
2016-12-27T01:33:11.239Z,1038.39
2016-12-27T01:34:11.228Z,1038.35
2016-12-27T01:35:11.217Z,1038.31
2016-12-27T01:36:11.208Z,1038.1
2016-12-27T01:37:11.194Z,1038.34
2016-12-27T01:38:11.183Z,1038.36
2016-12-27T01:39:11.173Z,1038.15
2016-12-27T01:40:11.162Z,1038.11
2016-12-27T01:41:11.150Z,1038.22
2016-12-27T01:42:11.139Z,1038.31
2016-12-27T01:43:11.127Z,1038.25
2016-12-27T01:44:11.116Z,1038.21
2016-12-27T01:45:11.105Z,1038.16
2016-12-27T01:46:11.094Z,1038.13
2016-12-27T01:47:11.083Z,1038.05
2016-12-27T01:48:11.072Z,1038.1
2016-12-27T01:49:11.060Z,1038.06
2016-12-27T01:50:11.050Z,1038.04
2016-12-27T01:51:11.038Z,1037.89
2016-12-27T01:52:11.028Z,1037.89
2016-12-27T01:53:11.017Z,1037.97
2016-12-27T01:54:11.008Z,1037.95
2016-12-27T01:55:10.994Z,1038
2016-12-27T01:56:10.984Z,1037.86
2016-12-27T01:57:10.973Z,1037.83
2016-12-27T01:58:10.964Z,1037.83
2016-12-27T01:59:10.950Z,1037.76
2016-12-27T02:00:10.939Z,1037.68
2016-12-27T02:01:10.929Z,1037.7
2016-12-27T02:02:10.917Z,1037.7
2016-12-27T02:03:10.907Z,1037.77
2016-12-27T02:04:10.896Z,1037.73
2016-12-27T02:05:10.885Z,1037.77
2016-12-27T02:06:10.873Z,1037.73
2016-12-27T02:07:10.863Z,1037.75
2016-12-27T02:08:10.852Z,1037.63
2016-12-27T02:09:10.841Z,1037.68
2016-12-27T02:10:10.830Z,1037.5
2016-12-27T02:11:10.818Z,1037.64
2016-12-27T02:12:10.808Z,1037.49
2016-12-27T02:13:10.797Z,1037.52
2016-12-27T02:14:10.786Z,1037.43
2016-12-27T02:15:10.775Z,1037.54
2016-12-27T02:16:10.765Z,1037.44
2016-12-27T02:17:10.753Z,1037.5
2016-12-27T02:18:10.742Z,1037.35
2016-12-27T02:19:10.732Z,1037.37
2016-12-27T02:20:10.721Z,1037.55
2016-12-27T02:21:10.710Z,1037.6
2016-12-27T02:22:10.699Z,1037.6
2016-12-27T02:23:10.688Z,1037.62
2016-12-27T02:24:10.676Z,1037.66
2016-12-27T02:25:10.666Z,1037.54
2016-12-27T02:26:10.657Z,1037.77
2016-12-27T02:27:10.645Z,1037.84
2016-12-27T02:28:10.632Z,1037.96
2016-12-27T02:29:10.622Z,1037.63
2016-12-27T02:30:10.611Z,1037.95
2016-12-27T02:31:10.600Z,1037.89
2016-12-27T02:32:10.589Z,1037.9
2016-12-27T02:33:10.577Z,1037.73
2016-12-27T02:34:13.599Z,1037.91
